Gaziantep, Turkey

11:42 PM +03 on December 05, 2016 (GMT +0300)
City Center | | Change Station

Elev 2779 ft 37.07 °N, 37.37 °E | Updated 2 minutes ago

Clear
Clear
43.2 °F
Feels Like 39 °F
N
6.9
Wind Variable Wind from WNW
Gusts 14.5 mph

Today
High -- | Low -- °F
--% Chance of Precip.
Yesterday
High -- | Low -- °F
Precip. -- in
Pressure 30.24 in
Visibility 5.0 miles
Clouds
Windchill 39 °F
Dew Point 28 °F
Humidity 55%
Rainfall 0.00 in
Snow Depth Not available.
7:29 AM 5:13 PM
Waxing Crescent, 34% visible
METAR LTAJ 052020Z 34005KT 8000 NSC 04/02 Q1024 NOSIG RMK RWY10 34007KT
Pressure 30.24 in
Visibility 5.0 miles
Clouds
Windchill 39 °F
Dew Point 28 °F
Humidity 55%
Rainfall 0.00 in
Snow Depth Not available.
7:29 AM 5:13 PM
Waxing Crescent, 34% visible
METAR LTAJ 052020Z 34005KT 8000 NSC 04/02 Q1024 NOSIG RMK RWY10 34007KT

10-Day Weather Forecast

×

Almanac

Astronomy

Dec. 05, 2016 Rise Set
Actual Time
Civil Twilight
Nautical Twilight
Astronomical Twilight
Moon
Length of Visible Light
Length of Day
Tomorrow will be .
, % of the Moon is Illuminated

Today's Extremes

Country Highs Country Lows

Community

WunderPhotos

Upload Photos

1,955,861 photos uploaded!

WunderBlog® & News

Nearby

Air Quality

  Air Quality AQ Index Pollutant
Not available.

Snow Depth

Station Depth Elevation

Earthquake Activity

City Distance Mag. Time & Date
Minimum magnitude displayed is 2.5.

Coastal Water Temperatures

Place Temperature

Stations

Nearby Weather Stations

Station Location Temp. Windchill Dew Point Humidity Wind Precip. Elev Updated Type